Time;durP1;ratioP1;P1;durP2;ratioP2;P2;SDS_P1;SDS_P2;PMS_P1;PMS_P2;Temp;Humidity;BMP_temperature;BMP_pressure;BME280_temperature;BME280_humidity;BME280_pressure;Samples;Min_cycle;Max_cycle;Signal;HPM_P1;HPM_P2
2021/10/13 16:16:38;;;;;;;5.15;1.45;;;;;;;18.95;48.53;102770.13;5070841;28;20414;-63
2021/10/13 16:19:04;;;;;;;4.57;1.55;;;;;;;18.92;48.85;102761.19;5071274;28;20032;-63
2021/10/13 16:21:29;;;;;;;4.65;1.50;;;;;;;18.90;49.05;102760.25;5072127;28;20078;-63
2021/10/13 16:23:54;;;;;;;10.30;2.15;;;;;;;18.89;49.28;102758.47;5072204;28;20390;-65
2021/10/13 16:26:20;;;;;;;3.47;1.67;;;;;;;18.87;49.44;102753.13;5070422;28;20041;-65
2021/10/13 16:28:45;;;;;;;3.40;1.40;;;;;;;18.85;49.80;102751.31;5071226;28;20371;-64
2021/10/13 16:31:10;;;;;;;3.65;1.80;;;;;;;18.83;49.67;102753.91;5071449;28;20626;-64
2021/10/13 16:33:37;;;;;;;3.47;1.63;;;;;;;18.82;49.73;102757.44;5071870;28;20085;-63
2021/10/13 16:36:02;;;;;;;6.75;2.30;;;;;;;18.83;49.71;102750.34;5071022;28;20028;-63
2021/10/13 16:38:27;;;;;;;13.45;2.67;;;;;;;18.85;50.55;102751.31;5059731;28;20425;-63
2021/10/13 16:40:53;;;;;;;5.28;2.10;;;;;;;18.83;50.84;102745.94;5072010;28;20025;-65
2021/10/13 16:43:18;;;;;;;7.07;2.13;;;;;;;18.80;50.91;102741.47;5070856;28;20021;-65
2021/10/13 16:45:48;;;;;;;4.05;1.60;;;;;;;18.82;50.78;102736.19;5071504;28;20282;-75
2021/10/13 16:48:14;;;;;;;7.90;1.80;;;;;;;18.87;50.25;102744.28;5069901;28;20150;-74
2021/10/13 16:50:39;;;;;;;6.63;2.00;;;;;;;18.86;50.28;102731.88;5071285;28;20033;-75
2021/10/13 16:53:04;;;;;;;6.50;2.58;;;;;;;18.85;50.49;102740.69;5070914;28;20035;-72
2021/10/13 16:55:30;;;;;;;9.75;3.72;;;;;;;18.88;49.97;102739.00;5070712;28;20142;-74
2021/10/13 16:57:55;;;;;;;10.23;3.97;;;;;;;18.92;50.37;102732.91;5069922;28;20290;-73
2021/10/13 17:00:20;;;;;;;7.45;3.35;;;;;;;18.95;49.91;102737.38;5069872;28;20032;-73
2021/10/13 17:02:46;;;;;;;6.75;3.30;;;;;;;18.94;50.62;102738.25;5071021;28;20028;-72
2021/10/13 17:05:11;;;;;;;10.25;3.85;;;;;;;18.93;50.76;102745.31;5055415;28;20194;-73
2021/10/13 17:07:37;;;;;;;7.30;3.90;;;;;;;18.90;50.55;102741.69;5056304;28;69605;-71
2021/10/13 17:10:03;;;;;;;8.82;3.65;;;;;;;18.88;50.69;102739.00;5019825;28;20030;-72
2021/10/13 17:13:10;;;;;;;7.95;3.60;;;;;;;18.80;50.00;102741.47;5028527;27;20416;-69
2021/10/13 17:15:35;;;;;;;8.40;4.03;;;;;;;18.75;50.35;102740.44;5034305;28;91200;-70
2021/10/13 17:18:01;;;;;;;7.22;3.35;;;;;;;18.70;50.95;102738.53;5041425;28;20299;-70
2021/10/13 17:20:33;;;;;;;10.57;4.38;;;;;;;18.68;50.71;102730.56;5041592;28;20342;-71
2021/10/13 17:22:59;;;;;;;7.63;3.85;;;;;;;18.65;50.57;102752.59;5039894;28;20059;-69
2021/10/13 17:25:24;;;;;;;8.18;3.85;;;;;;;18.60;50.56;102750.72;5042703;28;20108;-69
2021/10/13 17:27:50;;;;;;;10.35;4.40;;;;;;;18.56;50.59;102754.13;5042446;28;20023;-70
2021/10/13 17:30:15;;;;;;;7.75;3.83;;;;;;;18.53;50.81;102758.50;5042349;28;20027;-71
2021/10/13 17:32:40;;;;;;;7.20;3.97;;;;;;;18.53;51.02;102768.19;5040448;28;20024;-71
2021/10/13 17:35:06;;;;;;;5.82;3.25;;;;;;;18.51;50.87;102757.53;5042381;28;20025;-69
2021/10/13 17:37:31;;;;;;;7.38;3.22;;;;;;;18.49;51.25;102764.56;5039562;28;20483;-67
2021/10/13 17:39:57;;;;;;;8.07;3.60;;;;;;;18.43;50.72;102755.56;5039594;28;20025;-68
2021/10/13 17:42:22;;;;;;;8.15;3.40;;;;;;;18.47;50.60;102757.41;5040946;28;20718;-70
2021/10/13 17:44:48;;;;;;;5.85;3.60;;;;;;;18.48;51.04;102754.81;5043490;28;20013;-69
2021/10/13 17:47:13;;;;;;;8.10;3.67;;;;;;;18.47;50.90;102763.63;5051762;28;20345;-67
2021/10/13 17:49:38;;;;;;;7.50;3.22;;;;;;;18.43;50.68;102753.78;5050751;28;20021;-68
2021/10/13 17:52:04;;;;;;;9.50;3.25;;;;;;;18.42;51.00;102759.06;5045081;28;20274;-69
2021/10/13 17:54:30;;;;;;;7.85;3.65;;;;;;;18.36;50.81;102751.88;5039852;28;20310;-69
2021/10/13 17:56:55;;;;;;;5.90;3.10;;;;;;;18.36;50.67;102755.41;5028959;28;20041;-73
2021/10/13 17:59:20;;;;;;;5.25;3.10;;;;;;;18.45;51.51;102753.84;5029658;28;20057;-67
2021/10/13 18:01:46;;;;;;;5.15;2.65;;;;;;;18.44;50.88;102750.31;5031066;28;20025;-70
2021/10/13 18:04:12;;;;;;;5.82;2.83;;;;;;;18.44;50.43;102757.34;5030902;28;20173;-69
2021/10/13 18:06:37;;;;;;;5.18;2.85;;;;;;;18.40;50.75;102754.63;5031332;28;20038;-72
2021/10/13 18:09:03;;;;;;;4.72;2.90;;;;;;;18.37;50.29;102743.06;5029864;28;20379;-72
2021/10/13 18:11:28;;;;;;;6.28;3.15;;;;;;;18.36;50.17;102744.78;5030859;28;20030;-72
2021/10/13 18:13:54;;;;;;;6.97;3.03;;;;;;;18.33;50.44;102743.81;5030664;28;20021;-72
2021/10/13 18:16:19;;;;;;;5.70;3.33;;;;;;;18.32;50.85;102739.38;5030798;28;20036;-72
2021/10/13 18:18:45;;;;;;;6.55;3.20;;;;;;;18.31;50.52;102738.47;5031019;28;20043;-72
2021/10/13 18:21:11;;;;;;;5.55;3.33;;;;;;;18.28;50.25;102737.50;5030739;28;20249;-73
2021/10/13 18:23:37;;;;;;;4.63;2.60;;;;;;;18.33;50.09;102741.16;5022503;28;20034;-74
2021/10/13 18:26:02;;;;;;;5.95;2.80;;;;;;;18.31;50.32;102748.19;5017211;28;20037;-76
2021/10/13 18:28:27;;;;;;;4.35;2.58;;;;;;;18.25;50.39;102747.16;5016630;28;20040;-75
2021/10/13 18:30:53;;;;;;;9.73;2.88;;;;;;;18.30;50.69;102751.69;5017683;28;20352;-74
2021/10/13 18:33:18;;;;;;;6.25;2.80;;;;;;;18.32;50.51;102747.31;5016334;28;20260;-74
